Time;durP1;ratioP1;P1;durP2;ratioP2;P2;SDS_P1;SDS_P2;PMS_P1;PMS_P2;Temp;Humidity;BMP_temperature;BMP_pressure;BME280_temperature;BME280_humidity;BME280_pressure;Samples;Min_cycle;Max_cycle;Signal;HPM_P1;HPM_P2
2022/04/06 00:01:52;;;;;;;4.13;3.40;;;13.30;83.70;;;;;;986481;142;27216;-73
2022/04/06 00:04:18;;;;;;;3.17;2.97;;;13.30;84.00;;;;;;971556;145;27362;-74
2022/04/06 00:06:45;;;;;;;3.80;3.40;;;13.30;83.90;;;;;;990855;142;27331;-75
2022/04/06 00:09:12;;;;;;;3.43;3.13;;;13.30;83.90;;;;;;970828;145;27341;-73
2022/04/06 00:11:38;;;;;;;3.30;3.10;;;13.30;84.00;;;;;;970618;144;27372;-73
2022/04/06 00:14:05;;;;;;;3.63;3.33;;;13.30;84.00;;;;;;969636;145;27304;-74
2022/04/06 00:16:31;;;;;;;4.40;3.70;;;13.30;84.00;;;;;;990511;142;27274;-74
2022/04/06 00:18:58;;;;;;;3.60;3.30;;;13.30;84.20;;;;;;971761;145;28168;-74
2022/04/06 00:21:27;;;;;;;3.27;3.07;;;13.30;84.30;;;;;;970439;144;27423;-73
2022/04/06 00:23:51;;;;;;;4.00;3.70;;;13.30;84.40;;;;;;953113;148;27508;-74
2022/04/06 00:26:18;;;;;;;3.40;3.10;;;13.30;84.60;;;;;;970141;145;27294;-74
2022/04/06 00:28:44;;;;;;;3.77;3.40;;;13.30;84.60;;;;;;970322;145;27301;-74
2022/04/06 00:31:11;;;;;;;4.07;3.67;;;13.30;84.60;;;;;;986158;142;27445;-75
2022/04/06 00:33:37;;;;;;;3.80;3.50;;;13.30;84.80;;;;;;987101;142;27319;-74
2022/04/06 00:36:04;;;;;;;3.57;3.37;;;13.30;84.60;;;;;;987355;142;27331;-73
2022/04/06 00:38:31;;;;;;;3.87;3.57;;;13.30;84.90;;;;;;987875;142;27223;-73
2022/04/06 00:40:57;;;;;;;4.07;3.53;;;13.30;85.00;;;;;;986979;142;27316;-73
2022/04/06 00:43:24;;;;;;;3.50;3.20;;;13.30;85.30;;;;;;986359;142;27384;-74
2022/04/06 00:45:50;;;;;;;3.90;3.60;;;13.30;85.00;;;;;;971326;145;27422;-73
2022/04/06 00:48:17;;;;;;;4.33;3.93;;;13.30;85.00;;;;;;990593;142;27382;-74
2022/04/06 00:50:44;;;;;;;3.63;3.33;;;13.30;85.10;;;;;;986642;142;27284;-73
2022/04/06 00:53:10;;;;;;;4.33;3.93;;;13.30;85.10;;;;;;987202;142;27339;-74
2022/04/06 00:55:37;;;;;;;4.43;4.03;;;13.30;85.30;;;;;;986816;142;27330;-74
2022/04/06 00:58:03;;;;;;;4.13;3.73;;;13.30;85.40;;;;;;987311;142;27324;-74
2022/04/06 01:00:30;;;;;;;4.63;4.27;;;13.30;85.70;;;;;;985992;142;27316;-74
2022/04/06 01:02:56;;;;;;;4.27;3.93;;;13.30;85.70;;;;;;986949;142;27436;-74
2022/04/06 01:05:25;;;;;;;4.87;4.47;;;13.30;86.00;;;;;;986911;142;27421;-73
2022/04/06 01:07:50;;;;;;;4.23;3.90;;;13.30;86.20;;;;;;986586;142;27285;-74
2022/04/06 01:10:16;;;;;;;5.03;4.10;;;13.20;86.30;;;;;;986507;142;27311;-73
2022/04/06 01:12:43;;;;;;;4.47;4.07;;;13.20;86.50;;;;;;987036;142;27318;-74
2022/04/06 01:15:09;;;;;;;4.30;4.00;;;13.20;86.80;;;;;;985279;142;27305;-74
2022/04/06 01:17:36;;;;;;;4.03;3.73;;;13.20;86.80;;;;;;987040;142;27225;-74
2022/04/06 01:20:08;;;;;;;4.80;4.47;;;13.20;87.10;;;;;;986429;142;28269;-74
2022/04/06 01:22:35;;;;;;;4.87;4.33;;;13.10;87.30;;;;;;986674;142;27432;-74
2022/04/06 01:25:01;;;;;;;5.07;4.47;;;13.10;87.00;;;;;;987743;142;27391;-74
2022/04/06 01:27:28;;;;;;;4.77;4.37;;;13.10;87.40;;;;;;953838;147;27357;-75
2022/04/06 01:29:55;;;;;;;4.30;4.00;;;13.10;87.50;;;;;;970338;145;27679;-74
2022/04/06 01:32:21;;;;;;;4.70;4.30;;;13.00;87.80;;;;;;974468;144;27385;-75
2022/04/06 01:34:48;;;;;;;4.90;4.50;;;13.00;87.90;;;;;;987170;142;27408;-74
2022/04/06 01:37:14;;;;;;;5.63;4.63;;;13.00;88.10;;;;;;987367;142;28278;-73
2022/04/06 01:39:41;;;;;;;4.60;4.27;;;13.00;88.20;;;;;;970700;145;27395;-73
2022/04/06 01:42:08;;;;;;;5.67;5.17;;;13.00;88.30;;;;;;987003;142;27423;-74
2022/04/06 01:44:34;;;;;;;5.43;4.93;;;12.90;88.40;;;;;;971141;145;27337;-74
2022/04/06 01:47:01;;;;;;;5.13;4.67;;;12.90;88.50;;;;;;951333;148;27468;-74
2022/04/06 01:52:12;;;;;;;5.60;5.10;;;12.90;88.80;;;;;;971809;145;27258;-74
2022/04/06 01:54:39;;;;;;;5.50;5.10;;;12.90;88.70;;;;;;971136;145;27393;-74
2022/04/06 01:57:05;;;;;;;5.67;5.07;;;12.90;88.80;;;;;;970804;145;27241;-74
2022/04/06 01:59:32;;;;;;;5.20;4.70;;;12.90;89.00;;;;;;971120;145;27356;-74
2022/04/06 02:01:58;;;;;;;4.77;4.37;;;12.90;89.30;;;;;;963239;146;27402;-74
2022/04/06 02:04:25;;;;;;;5.50;5.10;;;12.90;89.20;;;;;;967820;146;27803;-74
2022/04/06 02:06:51;;;;;;;5.03;4.63;;;12.90;89.20;;;;;;968200;148;27239;-74
2022/04/06 02:09:18;;;;;;;4.90;4.50;;;12.90;89.20;;;;;;968202;146;27328;-75
2022/04/06 02:11:45;;;;;;;4.80;4.40;;;12.90;89.20;;;;;;971655;145;27329;-74
2022/04/06 02:14:11;;;;;;;4.57;4.17;;;13.00;89.30;;;;;;971714;145;27238;-73
2022/04/06 02:16:38;;;;;;;4.50;4.10;;;13.00;89.20;;;;;;950766;148;27299;-73
2022/04/06 02:19:07;;;;;;;5.90;4.13;;;13.00;89.20;;;;;;951588;148;27392;-74
2022/04/06 02:21:33;;;;;;;5.23;4.73;;;13.00;89.10;;;;;;967309;145;27336;-74
2022/04/06 02:24:00;;;;;;;4.13;3.83;;;13.00;89.00;;;;;;954769;147;28439;-74
2022/04/06 02:26:30;;;;;;;4.80;4.40;;;13.00;89.10;;;;;;954710;147;27426;-74
2022/04/06 02:28:53;;;;;;;4.87;4.37;;;13.00;89.00;;;;;;947327;147;27302;-74
2022/04/06 02:31:20;;;;;;;5.10;4.60;;;13.00;89.20;;;;;;971009;145;27385;-74
2022/04/06 02:33:47;;;;;;;5.23;4.73;;;13.00;89.10;;;;;;950846;148;27451;-74
2022/04/06 02:36:13;;;;;;;5.43;5.03;;;13.00;89.20;;;;;;980666;143;27320;-74
2022/04/06 02:38:39;;;;;;;5.27;4.80;;;13.10;89.20;;;;;;981113;143;27284;-74
2022/04/06 02:41:06;;;;;;;5.63;5.13;;;13.10;89.10;;;;;;980609;143;27328;-74
2022/04/06 02:43:33;;;;;;;5.57;5.07;;;13.10;89.30;;;;;;986444;142;27724;-74
2022/04/06 02:45:59;;;;;;;5.30;4.90;;;13.10;89.20;;;;;;976238;144;27343;-74
2022/04/06 02:48:26;;;;;;;4.97;4.57;;;13.10;89.10;;;;;;990378;142;27221;-75
2022/04/06 02:50:52;;;;;;;5.67;5.03;;;13.10;89.00;;;;;;990179;142;27216;-75
2022/04/06 02:53:19;;;;;;;5.20;4.80;;;13.10;89.00;;;;;;990561;142;27291;-75
2022/04/06 02:55:46;;;;;;;5.53;5.03;;;13.10;89.10;;;;;;991099;142;27360;-75
2022/04/06 02:58:12;;;;;;;5.57;5.17;;;13.10;89.20;;;;;;974989;144;27349;-75
2022/04/06 03:00:39;;;;;;;6.50;6.00;;;13.10;89.20;;;;;;988679;142;27304;-75
2022/04/06 03:03:05;;;;;;;6.30;5.70;;;13.00;89.10;;;;;;972852;145;27203;-75
2022/04/06 03:05:32;;;;;;;6.27;5.57;;;13.00;90.00;;;;;;974911;144;27377;-75
2022/04/06 03:07:59;;;;;;;5.57;5.07;;;13.00;89.40;;;;;;989307;142;27285;-75
2022/04/06 03:10:25;;;;;;;6.07;5.50;;;13.00;89.50;;;;;;988680;142;27395;-75
2022/04/06 03:12:52;;;;;;;6.33;5.80;;;13.00;89.30;;;;;;989018;142;27408;-75
2022/04/06 03:15:18;;;;;;;5.47;5.07;;;13.00;89.30;;;;;;988280;142;27249;-75
2022/04/06 03:17:45;;;;;;;6.07;5.47;;;13.00;89.30;;;;;;989396;142;27232;-75
2022/04/06 03:20:14;;;;;;;6.30;5.80;;;13.00;89.40;;;;;;989351;142;27401;-75
2022/04/06 03:22:41;;;;;;;5.53;5.10;;;13.00;89.30;;;;;;988847;142;27349;-75
2022/04/06 03:25:07;;;;;;;5.60;5.13;;;13.10;89.50;;;;;;988665;142;27297;-75
2022/04/06 03:27:34;;;;;;;5.30;4.80;;;13.10;89.20;;;;;;989169;142;27335;-75
2022/04/06 03:30:00;;;;;;;4.60;4.20;;;13.10;89.20;;;;;;988714;142;27396;-75
2022/04/06 03:32:27;;;;;;;6.03;5.47;;;13.10;89.00;;;;;;989078;142;27373;-76
2022/04/06 03:34:54;;;;;;;5.80;5.23;;;13.10;89.10;;;;;;989070;142;27790;-75
2022/04/06 03:37:20;;;;;;;4.87;4.47;;;13.10;89.60;;;;;;988327;142;27268;-76
2022/04/06 03:39:47;;;;;;;5.33;4.90;;;13.10;88.70;;;;;;989020;142;28168;-75
2022/04/06 03:42:13;;;;;;;5.00;4.50;;;13.20;89.50;;;;;;989078;142;27473;-75
2022/04/06 03:44:40;;;;;;;4.70;4.30;;;13.20;88.70;;;;;;969974;145;27498;-75
2022/04/06 03:47:06;;;;;;;5.43;4.87;;;13.20;88.70;;;;;;962834;146;27330;-75
2022/04/06 03:49:33;;;;;;;4.90;4.50;;;13.20;88.50;;;;;;951880;148;27295;-75
2022/04/06 03:52:00;;;;;;;5.07;4.67;;;13.20;88.40;;;;;;951186;148;27329;-75
2022/04/06 03:54:26;;;;;;;5.17;4.67;;;13.20;88.40;;;;;;968523;145;27308;-75
2022/04/06 03:56:53;;;;;;;5.93;4.27;;;13.20;88.10;;;;;;969650;145;27441;-75
2022/04/06 03:59:19;;;;;;;5.50;5.00;;;13.20;88.20;;;;;;968657;145;27357;-75
2022/04/06 04:01:46;;;;;;;5.83;4.93;;;13.30;88.20;;;;;;961466;146;27341;-75
2022/04/06 04:04:13;;;;;;;5.50;5.00;;;13.30;88.10;;;;;;969530;145;27239;-75
2022/04/06 04:06:39;;;;;;;5.40;5.00;;;13.30;88.00;;;;;;969032;145;27303;-75
2022/04/06 04:09:06;;;;;;;5.30;4.80;;;13.30;87.90;;;;;;963476;146;27419;-75
2022/04/06 04:11:33;;;;;;;5.60;5.10;;;13.30;87.90;;;;;;969609;145;29364;-75
2022/04/06 04:13:59;;;;;;;5.30;4.80;;;13.30;87.90;;;;;;962642;146;27324;-75
2022/04/06 04:16:25;;;;;;;6.80;5.70;;;13.30;87.80;;;;;;952275;148;27306;-75
2022/04/06 04:18:52;;;;;;;5.63;5.13;;;13.30;87.80;;;;;;969216;145;27266;-75
2022/04/06 04:21:34;;;;;;;5.83;5.33;;;13.30;87.60;;;;;;968770;145;27423;-75
2022/04/06 04:24:00;;;;;;;5.53;5.03;;;13.30;87.50;;;;;;970065;145;27407;-76
2022/04/06 04:26:27;;;;;;;6.33;5.73;;;13.30;87.30;;;;;;968548;145;27286;-75
2022/04/06 04:28:53;;;;;;;5.57;5.17;;;13.30;87.50;;;;;;968918;145;27262;-75
2022/04/06 04:31:20;;;;;;;5.93;5.33;;;13.30;87.40;;;;;;969129;145;27382;-75
2022/04/06 04:33:46;;;;;;;6.53;5.93;;;13.30;87.60;;;;;;961185;146;27447;-75
2022/04/06 04:36:13;;;;;;;5.73;5.23;;;13.30;87.50;;;;;;969103;145;27325;-75
2022/04/06 04:38:40;;;;;;;6.80;6.20;;;13.30;87.50;;;;;;960863;146;27303;-76
2022/04/06 04:41:09;;;;;;;6.73;6.13;;;13.30;87.50;;;;;;968996;145;27297;-75
2022/04/06 04:43:36;;;;;;;6.70;6.03;;;13.30;87.40;;;;;;952397;147;27427;-75
2022/04/06 04:46:02;;;;;;;6.57;5.77;;;13.30;87.30;;;;;;986823;142;27315;-75
2022/04/06 04:48:29;;;;;;;6.40;5.80;;;13.30;87.40;;;;;;986943;142;28404;-75
2022/04/06 04:50:55;;;;;;;6.33;5.73;;;13.30;87.30;;;;;;987429;142;27420;-75
2022/04/06 04:53:22;;;;;;;6.10;5.50;;;13.30;87.20;;;;;;986890;142;27375;-75
2022/04/06 04:55:49;;;;;;;6.27;5.70;;;13.30;87.10;;;;;;986839;142;27389;-75
2022/04/06 04:58:15;;;;;;;7.87;5.43;;;13.30;87.10;;;;;;970564;145;27434;-75
2022/04/06 05:00:42;;;;;;;6.90;6.27;;;13.30;86.40;;;;;;969185;145;27263;-75
2022/04/06 05:03:08;;;;;;;6.40;5.80;;;13.30;87.10;;;;;;985786;142;27684;-75
2022/04/06 05:05:35;;;;;;;5.97;5.47;;;13.30;87.20;;;;;;986360;142;27280;-75
2022/04/06 05:08:01;;;;;;;7.00;5.17;;;13.30;87.10;;;;;;986835;142;27425;-76
2022/04/06 05:10:28;;;;;;;7.70;6.90;;;13.30;87.20;;;;;;986644;142;27327;-75
2022/04/06 05:12:55;;;;;;;9.00;7.17;;;13.30;87.20;;;;;;986916;142;27327;-76
2022/04/06 05:15:21;;;;;;;6.90;6.23;;;13.30;87.20;;;;;;986704;142;27304;-75
2022/04/06 05:17:48;;;;;;;6.93;6.20;;;13.30;87.20;;;;;;987101;142;27338;-75
2022/04/06 05:20:14;;;;;;;6.47;5.87;;;13.30;87.00;;;;;;986061;142;27371;-75
2022/04/06 05:22:41;;;;;;;6.20;5.50;;;13.20;87.00;;;;;;986536;142;27850;-75
2022/04/06 05:25:08;;;;;;;6.43;5.70;;;13.20;87.00;;;;;;987208;142;27296;-76
2022/04/06 05:27:43;;;;;;;6.13;5.63;;;13.20;87.10;;;;;;986822;142;27317;-76
2022/04/06 05:30:10;;;;;;;6.47;5.67;;;13.20;87.20;;;;;;986645;142;27290;-75
2022/04/06 05:32:36;;;;;;;8.03;6.20;;;13.20;87.10;;;;;;986999;142;27415;-76
2022/04/06 05:35:03;;;;;;;7.07;6.47;;;13.20;87.20;;;;;;986305;142;27297;-75
2022/04/06 05:37:29;;;;;;;7.50;6.67;;;13.20;87.10;;;;;;985799;142;27444;-75
2022/04/06 05:39:56;;;;;;;6.60;6.00;;;13.20;87.10;;;;;;986652;142;27369;-76
2022/04/06 05:42:22;;;;;;;6.37;5.77;;;13.20;87.00;;;;;;986762;142;27274;-75
2022/04/06 05:44:49;;;;;;;7.70;6.03;;;13.20;87.10;;;;;;983590;143;27364;-75
2022/04/06 05:47:17;;;;;;;5.97;5.40;;;13.20;87.10;;;;;;965551;148;27691;-78
2022/04/06 05:49:42;;;;;;;6.13;5.53;;;13.20;87.10;;;;;;969509;145;27302;-78
2022/04/06 05:52:09;;;;;;;5.70;5.27;;;13.20;87.20;;;;;;970402;145;27257;-78
2022/04/06 05:54:35;;;;;;;6.20;5.60;;;13.20;87.40;;;;;;970275;148;27254;-78
2022/04/06 05:57:02;;;;;;;5.73;5.17;;;13.30;87.60;;;;;;970907;145;27425;-78
2022/04/06 05:59:28;;;;;;;7.00;6.30;;;13.30;87.90;;;;;;978659;146;27401;-78
2022/04/06 06:01:55;;;;;;;5.83;5.33;;;13.30;88.20;;;;;;979726;146;27353;-78
2022/04/06 06:04:22;;;;;;;6.00;5.40;;;13.40;88.70;;;;;;966425;148;27344;-78
2022/04/06 06:06:48;;;;;;;6.70;6.00;;;13.50;89.10;;;;;;980971;146;27369;-78
2022/04/06 06:09:15;;;;;;;5.97;5.47;;;13.70;89.40;;;;;;981870;146;27392;-78
2022/04/06 06:11:41;;;;;;;6.57;5.90;;;13.80;89.60;;;;;;980820;146;27338;-78
2022/04/06 06:14:08;;;;;;;5.53;5.00;;;14.00;89.20;;;;;;965715;146;27247;-78
2022/04/06 06:16:35;;;;;;;5.87;5.37;;;14.20;88.20;;;;;;970304;148;27402;-77
2022/04/06 06:19:01;;;;;;;5.37;4.80;;;14.30;87.40;;;;;;966003;148;27283;-77
2022/04/06 06:21:31;;;;;;;8.00;5.67;;;14.40;86.90;;;;;;970066;145;27340;-75
2022/04/06 06:23:55;;;;;;;5.77;4.73;;;14.60;86.30;;;;;;969250;145;27315;-75
2022/04/06 06:26:21;;;;;;;5.57;4.40;;;14.80;85.50;;;;;;979200;146;27311;-75
2022/04/06 06:28:48;;;;;;;4.37;3.97;;;14.90;84.60;;;;;;979012;146;27369;-76
2022/04/06 06:31:14;;;;;;;7.10;4.20;;;15.00;84.00;;;;;;978337;146;27280;-75
2022/04/06 06:33:41;;;;;;;4.63;4.13;;;15.10;83.20;;;;;;979595;146;27329;-75
2022/04/06 06:36:07;;;;;;;4.17;3.77;;;15.20;82.40;;;;;;979523;146;27316;-75
2022/04/06 06:38:34;;;;;;;4.43;3.37;;;15.30;81.70;;;;;;979714;146;27322;-75
2022/04/06 06:41:01;;;;;;;3.83;3.42;;;15.40;80.60;;;;;;978409;146;27285;-75
2022/04/06 06:43:27;;;;;;;4.60;3.43;;;15.40;80.00;;;;;;979722;146;27343;-75
2022/04/06 06:45:54;;;;;;;3.37;3.08;;;15.50;79.70;;;;;;979537;145;27371;-75
2022/04/06 06:48:20;;;;;;;5.47;3.27;;;15.50;79.60;;;;;;965991;148;27821;-75
2022/04/06 06:50:47;;;;;;;3.53;3.10;;;15.60;79.70;;;;;;970754;145;27245;-75
2022/04/06 06:53:13;;;;;;;5.75;3.55;;;15.70;79.90;;;;;;950200;151;27308;-75
2022/04/06 06:55:40;;;;;;;4.45;3.72;;;15.90;81.40;;;;;;970458;148;27298;-75
2022/04/06 06:58:07;;;;;;;5.55;2.98;;;16.30;82.90;;;;;;970854;148;27338;-75
2022/04/06 07:00:33;;;;;;;3.85;2.98;;;16.70;83.80;;;;;;965230;146;27432;-75
2022/04/06 07:03:00;;;;;;;2.62;2.42;;;17.30;84.60;;;;;;969789;148;27269;-75
2022/04/06 07:05:28;;;;;;;4.05;2.40;;;17.90;82.80;;;;;;970475;148;27262;-75
2022/04/06 07:07:53;;;;;;;3.55;2.60;;;18.40;79.50;;;;;;979780;146;27269;-75
2022/04/06 07:10:20;;;;;;;5.20;3.35;;;18.80;76.50;;;;;;979364;146;27310;-75
2022/04/06 07:12:46;;;;;;;3.90;2.75;;;19.20;75.40;;;;;;979432;146;27849;-75
2022/04/06 07:15:13;;;;;;;3.08;2.67;;;19.40;73.60;;;;;;979554;146;27281;-75
2022/04/06 07:17:39;;;;;;;3.92;2.50;;;19.70;72.30;;;;;;980129;146;27281;-75
2022/04/06 07:20:06;;;;;;;4.12;2.95;;;19.90;71.10;;;;;;979018;146;27337;-75
2022/04/06 07:22:33;;;;;;;4.62;2.65;;;20.10;69.80;;;;;;980098;146;27410;-75
2022/04/06 07:24:59;;;;;;;5.25;2.30;;;20.20;68.60;;;;;;979518;146;27320;-75
2022/04/06 07:27:26;;;;;;;4.00;2.62;;;20.40;68.30;;;;;;979942;146;27373;-75
2022/04/06 07:29:53;;;;;;;3.30;2.30;;;20.60;68.90;;;;;;964637;146;27322;-76
2022/04/06 07:32:19;;;;;;;3.12;2.05;;;20.80;68.00;;;;;;979548;146;27301;-75
2022/04/06 07:34:45;;;;;;;3.90;2.30;;;21.10;66.40;;;;;;978329;146;27298;-75
2022/04/06 07:37:12;;;;;;;5.35;2.12;;;21.20;64.80;;;;;;979597;146;27320;-75
2022/04/06 07:39:39;;;;;;;4.05;2.62;;;21.20;63.40;;;;;;980304;146;27295;-75
2022/04/06 07:42:05;;;;;;;3.92;2.35;;;21.20;62.10;;;;;;979898;146;27273;-75
2022/04/06 07:44:32;;;;;;;3.60;2.45;;;21.10;61.90;;;;;;978869;146;27365;-75
2022/04/06 07:47:00;;;;;;;3.60;2.40;;;20.90;61.80;;;;;;980449;145;27471;-75
2022/04/06 07:49:26;;;;;;;3.30;2.10;;;20.70;61.50;;;;;;964161;146;27931;-75
2022/04/06 07:51:52;;;;;;;3.60;2.22;;;20.60;61.40;;;;;;963980;148;27293;-75
2022/04/06 07:54:18;;;;;;;4.67;2.20;;;20.40;60.60;;;;;;969298;145;27338;-75
2022/04/06 07:56:45;;;;;;;3.85;2.10;;;20.20;60.70;;;;;;949412;148;27254;-75
2022/04/06 07:59:11;;;;;;;3.95;2.25;;;20.00;59.80;;;;;;979461;146;27277;-75
2022/04/06 08:01:38;;;;;;;5.65;2.22;;;19.80;60.00;;;;;;979171;146;27828;-75
2022/04/06 08:04:04;;;;;;;3.52;2.27;;;19.60;60.30;;;;;;978642;146;27342;-75
2022/04/06 08:06:31;;;;;;;3.60;2.40;;;19.40;60.50;;;;;;979598;146;27377;-75
2022/04/06 08:08:59;;;;;;;3.12;2.40;;;19.30;60.80;;;;;;965344;146;27305;-75
2022/04/06 08:11:24;;;;;;;3.22;2.20;;;19.20;61.10;;;;;;980825;146;27324;-75
2022/04/06 08:13:51;;;;;;;4.17;2.75;;;19.20;61.80;;;;;;981075;143;27739;-75
2022/04/06 08:16:17;;;;;;;3.15;2.10;;;19.20;62.00;;;;;;970793;148;27399;-75
2022/04/06 08:18:44;;;;;;;4.60;2.35;;;19.30;61.60;;;;;;979898;146;27346;-75
2022/04/06 08:21:11;;;;;;;4.15;2.40;;;19.50;63.00;;;;;;979366;146;27358;-75
2022/04/06 08:23:37;;;;;;;4.85;2.35;;;19.80;63.40;;;;;;979961;146;27328;-75
2022/04/06 08:26:04;;;;;;;2.77;2.05;;;20.20;63.70;;;;;;980246;146;27309;-75
2022/04/06 08:28:30;;;;;;;2.95;2.12;;;20.80;65.00;;;;;;979504;146;27403;-75
2022/04/06 08:30:57;;;;;;;3.47;2.58;;;21.50;65.10;;;;;;979185;146;27328;-76
2022/04/06 08:33:24;;;;;;;5.50;2.30;;;22.20;62.50;;;;;;979506;146;27247;-75
2022/04/06 08:35:51;;;;;;;3.37;2.00;;;22.90;62.10;;;;;;979920;146;27313;-76
2022/04/06 08:38:17;;;;;;;3.77;2.85;;;23.50;60.00;;;;;;979305;146;27372;-75
2022/04/06 08:40:43;;;;;;;2.98;2.47;;;23.80;58.00;;;;;;979477;146;27278;-76
2022/04/06 08:43:10;;;;;;;2.85;2.08;;;23.90;56.50;;;;;;979935;146;27286;-76
2022/04/06 08:45:39;;;;;;;3.05;2.22;;;24.00;56.00;;;;;;980311;146;27226;-75
2022/04/06 08:48:06;;;;;;;2.90;2.08;;;23.90;55.30;;;;;;987236;142;27367;-76
2022/04/06 08:50:33;;;;;;;3.40;2.30;;;23.80;54.80;;;;;;987191;142;27324;-75
2022/04/06 08:52:59;;;;;;;5.35;2.45;;;23.70;54.40;;;;;;986595;143;27257;-76
2022/04/06 08:55:26;;;;;;;3.80;2.12;;;23.60;54.10;;;;;;986892;142;27344;-76
2022/04/06 08:57:52;;;;;;;4.17;2.40;;;23.40;54.80;;;;;;987310;142;27354;-76
2022/04/06 09:00:19;;;;;;;4.67;2.35;;;23.40;54.70;;;;;;987125;142;27333;-75
2022/04/06 09:02:46;;;;;;;2.10;2.00;;;23.40;53.80;;;;;;971360;145;27338;-75
2022/04/06 09:05:12;;;;;;;3.65;1.60;;;23.20;53.40;;;;;;987212;142;27370;-75
2022/04/06 09:07:39;;;;;;;4.28;1.92;;;23.00;53.00;;;;;;986941;143;27240;-75
2022/04/06 09:10:05;;;;;;;3.90;2.25;;;22.70;52.20;;;;;;986868;143;27784;-75
2022/04/06 09:12:32;;;;;;;2.70;2.17;;;22.30;51.90;;;;;;987604;142;27757;-75
2022/04/06 09:15:07;;;;;;;5.22;2.58;;;22.00;52.40;;;;;;987353;142;27311;-75
2022/04/06 09:17:43;;;;;;;2.12;1.90;;;21.70;52.90;;;;;;987205;142;28083;-75
2022/04/06 09:20:10;;;;;;;3.87;2.30;;;21.40;53.40;;;;;;986010;142;27346;-75
2022/04/06 09:22:36;;;;;;;2.70;2.30;;;21.20;53.70;;;;;;987289;142;27671;-75
2022/04/06 09:25:03;;;;;;;3.55;2.47;;;21.00;53.70;;;;;;987820;142;27300;-75
2022/04/06 09:27:29;;;;;;;3.22;2.17;;;20.80;54.10;;;;;;987082;142;27330;-75
2022/04/06 09:29:56;;;;;;;2.83;2.15;;;20.60;53.90;;;;;;986230;142;27233;-75
2022/04/06 09:32:22;;;;;;;2.90;2.10;;;20.40;54.10;;;;;;987425;142;27311;-75
2022/04/06 09:34:49;;;;;;;2.75;2.05;;;20.30;54.30;;;;;;987619;142;27288;-75
2022/04/06 09:37:25;;;;;;;3.37;2.72;;;20.10;54.20;;;;;;987212;142;27342;-75
2022/04/06 09:39:51;;;;;;;2.75;2.35;;;19.90;54.00;;;;;;986835;142;28475;-75
2022/04/06 09:42:21;;;;;;;5.97;2.30;;;19.80;54.30;;;;;;970784;145;27237;-75
2022/04/06 09:47:41;;;;;;;3.37;2.83;;;19.60;55.40;;;;;;990300;142;27456;-74
2022/04/06 09:50:14;;;;;;;3.50;2.33;;;19.70;56.00;;;;;;986393;142;27334;-75
2022/04/06 09:52:39;;;;;;;2.17;1.92;;;19.80;55.60;;;;;;986299;142;27268;-75
2022/04/06 09:55:06;;;;;;;2.65;2.10;;;20.00;55.10;;;;;;987180;142;27233;-75
2022/04/06 09:57:42;;;;;;;2.80;2.10;;;20.10;54.70;;;;;;986846;142;27250;-75
2022/04/06 10:00:08;;;;;;;3.65;2.35;;;20.10;54.50;;;;;;986014;142;27423;-75
2022/04/06 10:02:35;;;;;;;3.87;2.47;;;20.20;54.60;;;;;;986228;142;27312;-75
2022/04/06 10:05:01;;;;;;;3.67;2.42;;;20.20;54.50;;;;;;953860;147;27308;-75
2022/04/06 10:07:28;;;;;;;2.10;1.42;;;20.20;55.00;;;;;;951335;148;27331;-75
2022/04/06 10:09:55;;;;;;;2.20;2.00;;;20.20;54.40;;;;;;986614;142;27260;-75
2022/04/06 10:12:21;;;;;;;3.27;2.30;;;20.30;54.30;;;;;;985462;142;27405;-75
2022/04/06 10:14:48;;;;;;;2.90;2.00;;;20.30;54.30;;;;;;986106;142;27299;-75
2022/04/06 10:17:16;;;;;;;2.35;1.65;;;20.30;54.30;;;;;;986857;142;27271;-74
2022/04/06 10:19:41;;;;;;;3.33;2.22;;;20.20;54.30;;;;;;971147;144;27274;-74
2022/04/06 10:22:10;;;;;;;3.37;2.22;;;20.30;54.00;;;;;;958673;147;27325;-75
2022/04/06 10:25:05;;;;;;;6.58;2.52;;;20.20;53.70;;;;;;949438;148;27453;-75
2022/04/06 10:27:38;;;;;;;1.98;1.77;;;20.10;53.60;;;;;;986685;142;27331;-75
2022/04/06 10:30:10;;;;;;;3.45;2.05;;;20.00;53.70;;;;;;986509;142;28794;-75
2022/04/06 10:32:39;;;;;;;4.22;2.12;;;19.90;53.70;;;;;;984979;142;27381;-75
2022/04/06 10:35:21;;;;;;;2.30;2.10;;;19.70;53.60;;;;;;985770;142;27240;-76
2022/04/06 10:37:53;;;;;;;3.85;2.40;;;19.50;53.50;;;;;;985891;142;27338;-76
2022/04/06 10:40:19;;;;;;;2.20;2.00;;;19.40;54.00;;;;;;978097;142;27272;-76
2022/04/06 10:42:46;;;;;;;2.87;2.40;;;19.30;54.50;;;;;;986180;142;27299;-76
2022/04/06 10:45:30;;;;;;;3.72;2.60;;;19.20;54.60;;;;;;986914;142;27376;-76
2022/04/06 10:48:12;;;;;;;4.50;2.42;;;19.20;54.90;;;;;;986895;142;27406;-76
2022/04/06 10:50:38;;;;;;;3.15;2.83;;;19.20;54.50;;;;;;985918;142;27332;-76
2022/04/06 10:53:20;;;;;;;3.22;2.70;;;19.20;54.70;;;;;;986273;142;27280;-76
2022/04/06 10:56:23;;;;;;;3.45;2.75;;;19.20;54.80;;;;;;986421;142;27380;-76
2022/04/06 10:58:55;;;;;;;4.17;2.62;;;19.20;55.00;;;;;;982118;142;27388;-76
2022/04/06 11:01:34;;;;;;;3.30;2.92;;;19.20;55.00;;;;;;986513;142;27331;-76
2022/04/06 11:03:58;;;;;;;4.92;3.10;;;19.20;55.10;;;;;;982084;142;27311;-76
2022/04/06 11:06:45;;;;;;;4.03;3.20;;;19.10;54.80;;;;;;986444;142;27272;-76
2022/04/06 11:12:14;;;;;;;4.78;3.33;;;19.10;54.90;;;;;;986627;142;27400;-74
2022/04/06 11:14:41;;;;;;;3.90;2.98;;;19.10;55.00;;;;;;985856;142;27384;-75
2022/04/06 11:17:37;;;;;;;3.27;2.80;;;19.10;55.00;;;;;;986005;142;27325;-76
2022/04/06 11:20:10;;;;;;;3.08;2.83;;;19.10;55.00;;;;;;985710;142;27441;-74
2022/04/06 11:22:38;;;;;;;4.25;2.83;;;19.10;55.00;;;;;;987073;142;27301;-75
2022/04/06 11:25:04;;;;;;;3.87;2.92;;;19.10;55.00;;;;;;986864;142;27295;-74
2022/04/06 11:27:33;;;;;;;3.30;2.60;;;19.20;54.80;;;;;;986241;142;27412;-75
2022/04/06 11:30:05;;;;;;;4.45;3.10;;;19.20;54.60;;;;;;986727;142;27420;-75
2022/04/06 11:32:33;;;;;;;3.15;2.85;;;19.10;54.50;;;;;;986914;142;27316;-75
2022/04/06 11:34:59;;;;;;;3.60;3.08;;;19.10;54.50;;;;;;985875;142;27310;-75
2022/04/06 11:37:25;;;;;;;4.97;2.75;;;19.10;54.40;;;;;;986314;142;27323;-75
2022/04/06 11:39:58;;;;;;;3.50;2.83;;;19.00;54.20;;;;;;971593;145;27329;-75
2022/04/06 11:42:24;;;;;;;3.95;2.92;;;18.90;54.20;;;;;;969920;145;27325;-75
2022/04/06 11:44:51;;;;;;;3.58;2.92;;;18.80;54.30;;;;;;953738;148;27288;-74
2022/04/06 11:47:26;;;;;;;3.80;2.20;;;18.80;54.50;;;;;;970116;145;27253;-75
2022/04/06 11:49:53;;;;;;;3.17;2.30;;;18.80;54.70;;;;;;964373;147;27481;-75
2022/04/06 11:52:20;;;;;;;3.12;2.83;;;18.80;55.00;;;;;;984756;145;27404;-75
2022/04/06 11:54:50;;;;;;;2.58;2.27;;;18.80;55.10;;;;;;984628;145;27319;-74
2022/04/06 11:57:16;;;;;;;3.33;2.77;;;18.90;55.20;;;;;;984203;145;27268;-74
2022/04/06 11:59:52;;;;;;;3.02;2.65;;;19.00;55.10;;;;;;982539;145;27318;-75
2022/04/06 12:02:18;;;;;;;3.67;2.55;;;19.10;55.00;;;;;;983805;145;27273;-75
2022/04/06 12:04:48;;;;;;;4.60;2.40;;;19.20;54.90;;;;;;985414;145;27332;-75
2022/04/06 12:07:18;;;;;;;2.83;2.25;;;19.30;54.50;;;;;;984251;145;27733;-75
2022/04/06 12:12:23;;;;;;;2.20;2.00;;;19.40;54.30;;;;;;975744;145;37072;-74
2022/04/06 12:14:49;;;;;;;3.17;2.20;;;19.50;53.40;;;;;;969123;146;27449;-74
2022/04/06 12:17:15;;;;;;;3.35;2.10;;;19.50;53.30;;;;;;968235;146;27394;-74
2022/04/06 12:19:42;;;;;;;2.40;2.00;;;19.60;53.20;;;;;;966655;146;27402;-74
2022/04/06 12:22:08;;;;;;;3.30;1.85;;;19.60;53.00;;;;;;969182;146;27347;-74
2022/04/06 12:24:44;;;;;;;3.10;1.90;;;19.60;53.50;;;;;;971626;146;27373;-74
2022/04/06 12:27:10;;;;;;;3.17;1.98;;;19.60;52.70;;;;;;970215;146;27362;-77
2022/04/06 12:29:38;;;;;;;2.08;1.85;;;19.60;52.40;;;;;;969031;146;27314;-76
2022/04/06 12:32:03;;;;;;;2.42;2.02;;;19.60;52.30;;;;;;957241;146;27409;-76
2022/04/06 12:34:30;;;;;;;1.82;1.72;;;19.60;52.20;;;;;;949348;149;27435;-76
2022/04/06 12:36:56;;;;;;;3.25;1.90;;;19.50;52.00;;;;;;952528;149;27252;-76
2022/04/06 12:39:23;;;;;;;3.05;2.05;;;19.50;52.20;;;;;;951863;149;27720;-77
2022/04/06 12:42:08;;;;;;;3.50;2.00;;;19.50;51.90;;;;;;951548;149;27394;-76
2022/04/06 12:44:34;;;;;;;2.20;1.80;;;19.40;52.50;;;;;;951966;149;27328;-76
2022/04/06 12:47:01;;;;;;;2.65;1.57;;;19.40;51.80;;;;;;950952;147;27311;-76
2022/04/06 12:49:32;;;;;;;1.55;1.37;;;19.40;51.60;;;;;;950439;149;27340;-76
2022/04/06 12:52:15;;;;;;;3.22;1.90;;;19.40;51.40;;;;;;951599;149;27432;-77
2022/04/06 12:54:42;;;;;;;2.72;1.77;;;19.30;51.40;;;;;;951619;149;27339;-76
2022/04/06 12:57:18;;;;;;;1.50;1.40;;;19.30;51.40;;;;;;950088;149;27366;-75
2022/04/06 12:59:50;;;;;;;2.95;1.67;;;19.30;51.30;;;;;;950906;149;27416;-75
2022/04/06 13:02:22;;;;;;;3.20;2.33;;;19.20;51.30;;;;;;952329;149;27313;-75